Etusivu
METAR-TAF:

METAR-TAF

Lentoasemat :

Deauville, Ranska

Leveyspiiri: 49-21-55N, Pituuspiiri: 000-09-16E, korkeus merenpinnasta: 146 m

Tämänhetkinen sää

Tämä raportti tehtiin 23 minuuttia sitten, kello 08.30 UTC
Tuuli 4 kn pohjoisen/luoteesta, vaihdellen lännen ja idän/koillisen välillä
Lämpötila 19°C
Kosteus 64%
Ilmanpaine 1026 hPa
Näkyvyys 10 km tai enemmän
ei pilviä alle 1500 m:ssä eikä cumulonimbus-pilviä

METAR: LFRG 130830Z AUTO 34004KT 260V060 CAVOK 19/12 Q1026 NOSIG

Aika: 10:53 (08:53 UTC)

Sääennuste

Tämä raportti tehtiin 53 minuuttia sitten, kello 08.00 UTC
Ennuste voimassa 13. päivästä klo 09 UTC - 13. päivään klo 18 UTC
Tuuli 5 kn pohjoisesta/koillisesta
Näkyvyys 10 km tai enemmän
ei pilviä alle 1500 m:ssä eikä cumulonimbus-pilviä
Tulossa
13. päivästä klo 10 UTC - 13. päivään klo 12 UTC
Tuuli 10 kn luoteesta

TAF: LFRG 130800Z 1309/1318 02005KT CAVOK BECMG 1310/1312 31010KT

Säähavainnot ja -ennusteet yli 4000 lentoasemalta (METAR- ja TAF-raportit).

Käytössä olevat sääasemat on merkitty karttaan keltaisilla ja punaisilla pisteillä.

Aseta hiiri pisteen päälle nähdäksesi sääaseman nimen.

Klikkaa sitten nähdäksesi säähavainnot ja -ennusteet.

Kartan vaihtaminen: klikkaa mustalla rastilla varustettuja vihreitä pisteitä, niin voit zoomata sisään; viivalla varustettua vihreää pistettä, niin voit zoomata ulos tai vihreitä nuolia, niin pääset viereisille kartoille.


METAR-TAF: